createdAt,value
2023-02-25T00:00:54.953Z,4.70
2023-02-25T00:03:29.337Z,4.70
2023-02-25T00:06:03.359Z,4.70
2023-02-25T00:08:37.119Z,4.80
2023-02-25T00:11:10.298Z,4.60
2023-02-25T00:13:44.607Z,4.70
2023-02-25T00:16:18.673Z,4.70
2023-02-25T00:18:57.030Z,4.60
2023-02-25T00:21:30.269Z,4.70
2023-02-25T00:24:15.596Z,4.70
2023-02-25T00:26:50.244Z,4.60
2023-02-25T00:29:23.384Z,4.60
2023-02-25T00:31:56.836Z,4.60
2023-02-25T00:34:31.497Z,4.60
2023-02-25T00:37:04.973Z,4.60
2023-02-25T00:39:43.021Z,4.70
2023-02-25T00:42:18.307Z,4.60
2023-02-25T00:44:52.250Z,4.50
2023-02-25T00:47:25.269Z,4.40
2023-02-25T00:49:59.707Z,4.40
2023-02-25T00:52:34.249Z,4.30
2023-02-25T00:55:08.460Z,4.40
2023-02-25T00:57:43.166Z,4.40
2023-02-25T01:00:17.390Z,4.40
2023-02-25T01:02:50.469Z,4.40
2023-02-25T01:05:25.459Z,4.40
2023-02-25T01:07:58.648Z,4.50
2023-02-25T01:10:31.643Z,4.40
2023-02-25T01:13:04.854Z,4.40
2023-02-25T01:15:38.098Z,4.50
2023-02-25T01:18:11.266Z,4.50
2023-02-25T01:20:45.613Z,4.50
2023-02-25T01:23:18.636Z,4.50
2023-02-25T01:25:51.639Z,4.60
2023-02-25T01:28:24.653Z,4.60
2023-02-25T01:30:57.791Z,4.60
2023-02-25T01:33:30.879Z,4.60
2023-02-25T01:36:07.023Z,4.60
2023-02-25T01:38:40.092Z,4.60
2023-02-25T01:41:13.181Z,4.60
2023-02-25T01:44:06.112Z,4.50
2023-02-25T01:46:40.721Z,4.50
2023-02-25T01:49:19.143Z,4.50
2023-02-25T01:51:58.339Z,4.50
2023-02-25T01:54:32.522Z,4.50
2023-02-25T01:57:11.161Z,4.50
2023-02-25T01:59:45.785Z,4.50
2023-02-25T02:02:22.522Z,4.50
2023-02-25T02:04:56.272Z,4.60
2023-02-25T02:07:30.698Z,4.50
2023-02-25T02:10:04.710Z,4.40
2023-02-25T02:12:41.230Z,4.40
2023-02-25T02:15:16.665Z,4.40
2023-02-25T02:17:57.306Z,4.40
2023-02-25T02:20:34.948Z,4.40
2023-02-25T02:23:47.214Z,4.40
2023-02-25T02:26:51.925Z,4.40
2023-02-25T02:30:07.610Z,4.40
2023-02-25T02:32:49.804Z,4.30
2023-02-25T02:35:30.642Z,4.30
2023-02-25T02:38:13.743Z,4.30
2023-02-25T02:40:58.065Z,4.30
2023-02-25T02:43:42.404Z,4.30
2023-02-25T02:46:22.072Z,4.30
2023-02-25T02:49:06.581Z,4.30
2023-02-25T02:51:45.087Z,4.30
2023-02-25T02:54:20.154Z,4.20
2023-02-25T02:56:57.303Z,4.20
2023-02-25T02:59:36.316Z,4.20
2023-02-25T03:02:14.588Z,4.20
2023-02-25T03:04:55.092Z,4.20
2023-02-25T03:07:30.098Z,4.20
2023-02-25T03:10:08.586Z,4.20
2023-02-25T03:12:41.927Z,4.20
2023-02-25T03:15:15.514Z,4.10
2023-02-25T03:17:55.103Z,4.20
2023-02-25T03:20:35.230Z,4.20
2023-02-25T03:23:15.806Z,4.10
2023-02-25T03:25:53.532Z,4.10
2023-02-25T03:28:30.984Z,4.10
2023-02-25T03:31:08.266Z,4.10
2023-02-25T03:33:47.891Z,4.10
2023-02-25T03:36:28.064Z,4.00
2023-02-25T03:39:08.316Z,4.00
2023-02-25T03:41:47.685Z,4.00
2023-02-25T03:44:26.803Z,4.00
2023-02-25T03:47:01.368Z,4.00
2023-02-25T03:49:42.162Z,3.90
2023-02-25T03:52:21.342Z,3.90
2023-02-25T03:54:57.123Z,3.90
2023-02-25T03:57:38.213Z,3.90
2023-02-25T04:00:19.130Z,3.90
2023-02-25T04:02:52.933Z,3.90
2023-02-25T04:05:27.644Z,3.90
2023-02-25T04:08:02.103Z,3.80
2023-02-25T04:10:35.198Z,3.70
2023-02-25T04:13:08.385Z,3.70
2023-02-25T04:15:42.213Z,3.60
2023-02-25T04:18:15.962Z,3.60
2023-02-25T04:20:49.138Z,3.60
2023-02-25T04:23:23.721Z,3.60
2023-02-25T04:25:56.776Z,3.60
2023-02-25T04:28:29.828Z,3.70
2023-02-25T04:31:03.062Z,3.70
2023-02-25T04:33:36.174Z,3.70
2023-02-25T04:36:28.184Z,3.80
2023-02-25T04:39:06.302Z,3.80
2023-02-25T04:41:39.756Z,3.70
2023-02-25T04:44:12.998Z,3.70
2023-02-25T04:46:46.149Z,3.80
2023-02-25T04:49:21.347Z,3.80
2023-02-25T04:51:54.609Z,3.80
2023-02-25T04:54:29.152Z,3.80
2023-02-25T04:57:02.262Z,3.80
2023-02-25T04:59:35.430Z,3.80
2023-02-25T05:02:09.125Z,3.80
2023-02-25T05:04:42.624Z,3.70
2023-02-25T05:07:15.747Z,3.70
2023-02-25T05:09:50.126Z,3.70
2023-02-25T05:12:23.202Z,3.70
2023-02-25T05:14:56.322Z,3.70
2023-02-25T05:17:29.350Z,3.70
2023-02-25T05:20:02.703Z,3.70
2023-02-25T05:22:36.274Z,3.70
2023-02-25T05:25:12.564Z,3.70
2023-02-25T05:27:45.708Z,3.70
2023-02-25T05:30:19.644Z,3.70
2023-02-25T05:32:52.877Z,3.60
2023-02-25T05:35:26.053Z,3.60
2023-02-25T05:37:59.308Z,3.70
2023-02-25T05:40:36.179Z,3.60
2023-02-25T05:43:09.863Z,3.60
2023-02-25T05:45:42.990Z,3.60
2023-02-25T05:48:16.103Z,3.60
2023-02-25T05:50:50.562Z,3.50
2023-02-25T05:53:23.657Z,3.50
2023-02-25T05:55:58.005Z,3.50
2023-02-25T05:58:31.092Z,3.50
2023-02-25T06:01:11.375Z,3.50
2023-02-25T06:03:46.467Z,3.40
2023-02-25T06:06:23.186Z,3.50
2023-02-25T06:08:56.694Z,3.50
2023-02-25T06:11:31.983Z,3.40
2023-02-25T06:14:05.072Z,3.50
2023-02-25T06:16:40.410Z,3.50
2023-02-25T06:19:14.025Z,3.50
2023-02-25T06:21:47.072Z,3.50
2023-02-25T06:24:20.104Z,3.50
2023-02-25T06:26:54.552Z,3.50
2023-02-25T06:29:27.691Z,3.50
2023-02-25T06:32:01.424Z,3.50
2023-02-25T06:34:34.876Z,3.50
2023-02-25T06:37:08.746Z,3.50
2023-02-25T06:39:43.429Z,3.50
2023-02-25T06:42:18.025Z,3.50
2023-02-25T06:44:51.286Z,3.50
2023-02-25T06:47:24.381Z,3.60
2023-02-25T06:49:58.989Z,3.50
2023-02-25T06:52:32.910Z,3.50
2023-02-25T06:55:07.795Z,3.60
2023-02-25T06:57:42.279Z,3.60
2023-02-25T07:00:16.405Z,3.60
2023-02-25T07:02:49.509Z,3.60
2023-02-25T07:05:22.655Z,3.70
2023-02-25T07:07:55.781Z,3.70
2023-02-25T07:10:29.074Z,3.70
2023-02-25T07:13:03.603Z,3.70
2023-02-25T07:15:37.219Z,3.60
2023-02-25T07:18:10.551Z,3.70
2023-02-25T07:20:44.023Z,3.70
2023-02-25T07:23:17.055Z,3.80
2023-02-25T07:25:50.202Z,3.70
2023-02-25T07:28:24.651Z,3.70
2023-02-25T07:30:57.783Z,3.80
2023-02-25T07:33:31.679Z,3.80
2023-02-25T07:36:05.334Z,3.80
2023-02-25T07:38:39.103Z,3.80
2023-02-25T07:41:15.597Z,4.00
2023-02-25T07:43:50.094Z,3.90
2023-02-25T07:46:23.254Z,3.90
2023-02-25T07:48:56.339Z,4.00
2023-02-25T07:51:29.673Z,4.00
2023-02-25T07:54:02.927Z,4.00
2023-02-25T07:56:36.049Z,4.10
2023-02-25T07:59:11.314Z,4.10
2023-02-25T08:01:44.411Z,4.30
2023-02-25T08:04:17.658Z,4.50
2023-02-25T08:06:51.615Z,4.90
2023-02-25T08:09:24.702Z,5.10
2023-02-25T08:11:57.755Z,5.40
2023-02-25T08:14:32.114Z,5.70
2023-02-25T08:17:05.268Z,5.80
2023-02-25T08:19:38.385Z,6.00
2023-02-25T08:22:11.941Z,6.00
2023-02-25T08:24:44.997Z,6.10
2023-02-25T08:27:18.024Z,6.00
2023-02-25T08:29:52.471Z,6.00
2023-02-25T08:32:27.515Z,5.70
2023-02-25T08:35:00.683Z,5.70
2023-02-25T08:37:34.230Z,5.50
2023-02-25T08:40:10.746Z,5.50
2023-02-25T08:42:43.786Z,5.60
2023-02-25T08:45:18.574Z,5.60
2023-02-25T08:47:51.622Z,5.80
2023-02-25T08:50:24.970Z,5.70
2023-02-25T08:52:58.903Z,5.70
2023-02-25T08:55:35.286Z,5.70
2023-02-25T08:58:09.098Z,5.90
2023-02-25T09:00:43.665Z,6.00
2023-02-25T09:03:16.761Z,6.20
2023-02-25T09:05:53.494Z,6.40
2023-02-25T09:08:27.836Z,6.40
2023-02-25T09:11:00.840Z,6.60
2023-02-25T09:13:33.995Z,6.90
2023-02-25T09:16:09.349Z,7.30
2023-02-25T09:18:42.568Z,7.30
2023-02-25T09:21:16.324Z,7.20
2023-02-25T09:23:51.263Z,7.20
2023-02-25T09:26:24.379Z,6.80
2023-02-25T09:28:57.835Z,6.60
2023-02-25T09:31:33.718Z,6.40
2023-02-25T09:34:13.894Z,6.30
2023-02-25T09:36:47.221Z,6.10
2023-02-25T09:39:20.272Z,6.10
2023-02-25T09:41:57.401Z,6.20
2023-02-25T09:44:33.928Z,6.20
2023-02-25T09:47:19.313Z,6.40
2023-02-25T09:49:57.669Z,6.50
2023-02-25T09:52:34.953Z,6.50
2023-02-25T09:55:17.145Z,6.30
2023-02-25T09:58:03.990Z,6.40
2023-02-25T10:00:44.347Z,6.50
2023-02-25T10:03:26.594Z,6.50
2023-02-25T10:06:05.670Z,6.60
2023-02-25T10:08:45.878Z,6.70
2023-02-25T10:11:30.562Z,6.80
2023-02-25T10:14:17.111Z,6.90
2023-02-25T10:17:03.398Z,6.80
2023-02-25T10:19:55.249Z,6.50
2023-02-25T10:22:43.151Z,6.50
2023-02-25T10:25:20.054Z,6.70
2023-02-25T10:27:58.393Z,6.60
2023-02-25T10:30:38.087Z,6.50
2023-02-25T10:33:21.342Z,6.40
2023-02-25T10:36:02.349Z,6.20
2023-02-25T10:38:36.460Z,6.20
2023-02-25T10:41:09.702Z,6.10
2023-02-25T10:43:43.714Z,6.00
2023-02-25T10:46:23.302Z,6.00
2023-02-25T10:49:00.139Z,6.00
2023-02-25T10:51:34.608Z,6.00
2023-02-25T10:54:15.008Z,6.10
2023-02-25T10:56:49.832Z,6.30
2023-02-25T10:59:31.649Z,6.40
2023-02-25T11:02:23.548Z,6.50
2023-02-25T11:38:44.734Z,6.40
2023-02-25T11:41:22.580Z,6.40
2023-02-25T11:43:55.995Z,6.40
2023-02-25T11:46:33.894Z,6.30
2023-02-25T11:49:19.168Z,6.20
2023-02-25T11:52:02.259Z,6.10
2023-02-25T11:54:47.942Z,6.10
2023-02-25T11:57:34.063Z,6.10
2023-02-25T12:00:25.510Z,6.10
2023-02-25T12:03:19.644Z,6.20
2023-02-25T12:06:02.358Z,6.00
2023-02-25T12:08:50.139Z,5.90
2023-02-25T12:12:05.857Z,5.80
2023-02-25T12:15:31.382Z,5.80
2023-02-25T12:19:05.357Z,5.80
2023-02-25T12:22:14.792Z,5.90
2023-02-25T12:25:12.276Z,6.10
2023-02-25T12:28:45.035Z,6.10
2023-02-25T12:32:10.948Z,6.10
2023-02-25T12:35:32.001Z,6.10
2023-02-25T12:38:54.896Z,6.10
2023-02-25T12:41:40.426Z,6.20
2023-02-25T12:44:49.617Z,6.10
2023-02-25T12:47:42.914Z,6.10
2023-02-25T12:50:32.283Z,6.00
2023-02-25T12:53:29.267Z,6.00
2023-02-25T12:56:23.115Z,5.90
2023-02-25T12:59:39.365Z,5.90
2023-02-25T13:02:43.977Z,6.10
2023-02-25T13:05:49.525Z,5.80
2023-02-25T13:09:01.987Z,5.60
2023-02-25T13:12:10.007Z,5.30
2023-02-25T13:14:51.094Z,5.20
2023-02-25T13:17:43.849Z,5.30
2023-02-25T13:20:37.871Z,5.50
2023-02-25T13:23:44.701Z,5.60
2023-02-25T13:26:46.301Z,5.60
2023-02-25T13:29:42.405Z,5.70
2023-02-25T13:32:27.582Z,5.80
2023-02-25T13:35:36.152Z,5.90
2023-02-25T13:38:24.993Z,6.00
2023-02-25T13:41:20.392Z,6.10
2023-02-25T13:44:18.711Z,6.10
2023-02-25T13:47:05.545Z,6.20
2023-02-25T13:50:29.280Z,6.10
2023-02-25T13:53:33.851Z,5.90
2023-02-25T13:56:32.066Z,5.80
2023-02-25T13:59:32.111Z,6.00
2023-02-25T14:02:24.342Z,6.10
2023-02-25T14:05:32.390Z,6.20
2023-02-25T14:08:27.895Z,6.10
2023-02-25T14:11:18.739Z,6.10
2023-02-25T14:14:28.348Z,6.20
2023-02-25T14:17:25.130Z,6.20
2023-02-25T14:20:20.377Z,6.10
2023-02-25T14:22:57.171Z,6.00
2023-02-25T14:25:52.864Z,5.90
2023-02-25T14:28:36.479Z,5.90
2023-02-25T14:31:23.168Z,5.80
2023-02-25T14:34:24.927Z,5.70
2023-02-25T14:37:26.390Z,5.50
2023-02-25T14:40:27.206Z,5.40
2023-02-25T14:43:29.215Z,5.50
2023-02-25T14:46:13.561Z,5.50
2023-02-25T14:48:55.219Z,5.50
2023-02-25T14:51:57.737Z,5.60
2023-02-25T14:55:26.069Z,5.60
2023-02-25T14:58:41.274Z,5.70
2023-02-25T15:01:41.185Z,5.70
2023-02-25T15:04:56.799Z,5.70
2023-02-25T15:08:02.185Z,5.70
2023-02-25T15:10:49.659Z,5.60
2023-02-25T15:14:28.135Z,5.60
2023-02-25T15:17:23.219Z,5.70
2023-02-25T15:20:10.987Z,5.70
2023-02-25T15:23:04.964Z,5.70
2023-02-25T15:25:45.943Z,5.80
2023-02-25T15:28:41.554Z,5.80
2023-02-25T15:31:34.042Z,5.80
2023-02-25T15:34:34.315Z,5.70
2023-02-25T15:37:32.183Z,5.70
2023-02-25T15:40:49.028Z,5.70
2023-02-25T15:43:44.692Z,5.80
2023-02-25T15:46:44.284Z,5.80
2023-02-25T15:49:32.995Z,5.80
2023-02-25T15:52:07.524Z,5.70
2023-02-25T15:54:50.784Z,5.70
2023-02-25T15:57:38.597Z,5.60
2023-02-25T16:00:52.990Z,5.60
2023-02-25T16:03:40.908Z,5.60
2023-02-25T16:06:20.024Z,5.60
2023-02-25T16:08:58.952Z,5.60
2023-02-25T16:11:38.749Z,5.50
2023-02-25T16:14:19.584Z,5.40
2023-02-25T16:16:57.832Z,5.00
2023-02-25T16:19:39.254Z,4.50
2023-02-25T16:22:18.029Z,4.20
2023-02-25T16:24:54.867Z,4.00
2023-02-25T16:27:46.703Z,3.80
2023-02-25T16:30:27.080Z,3.70
2023-02-25T16:33:12.884Z,3.50
2023-02-25T16:36:02.649Z,3.40
2023-02-25T16:38:47.907Z,3.40
2023-02-25T16:41:27.865Z,3.40
2023-02-25T16:44:04.478Z,3.40
2023-02-25T16:46:41.459Z,3.40
2023-02-25T16:49:22.415Z,3.40
2023-02-25T16:51:58.145Z,3.30
2023-02-25T16:54:36.560Z,3.30
2023-02-25T16:57:21.774Z,3.30
2023-02-25T17:00:15.128Z,3.30
2023-02-25T17:02:53.669Z,3.20
2023-02-25T17:05:32.302Z,3.20
2023-02-25T17:08:15.598Z,3.20
2023-02-25T17:10:55.957Z,3.10
2023-02-25T17:13:32.796Z,3.10
2023-02-25T17:16:07.635Z,3.10
2023-02-25T17:18:48.745Z,3.10
2023-02-25T17:21:26.552Z,3.10
2023-02-25T17:24:03.275Z,3.10
2023-02-25T17:26:41.059Z,3.10
2023-02-25T17:29:16.827Z,3.10
2023-02-25T17:31:53.005Z,3.10
2023-02-25T17:34:31.360Z,3.10
2023-02-25T17:37:07.604Z,3.10
2023-02-25T17:39:44.255Z,3.10
2023-02-25T17:42:30.705Z,3.00
2023-02-25T17:45:07.256Z,3.00
2023-02-25T17:47:44.600Z,3.00
2023-02-25T17:50:30.140Z,3.00
2023-02-25T17:53:03.217Z,3.10
2023-02-25T17:55:37.606Z,3.00
2023-02-25T17:58:24.040Z,3.00
2023-02-25T18:01:02.699Z,2.70
2023-02-25T18:03:46.705Z,2.50
2023-02-25T18:06:34.741Z,2.30
2023-02-25T18:09:29.271Z,2.20
2023-02-25T18:12:05.750Z,2.00
2023-02-25T18:14:41.430Z,2.00
2023-02-25T18:17:24.190Z,1.90
2023-02-25T18:20:00.342Z,1.90
2023-02-25T18:22:38.404Z,1.80
2023-02-25T18:25:31.093Z,1.80
2023-02-25T18:28:08.004Z,1.70
2023-02-25T18:30:41.361Z,1.70
2023-02-25T18:33:14.947Z,1.70
2023-02-25T18:35:49.349Z,1.70
2023-02-25T18:38:26.022Z,1.70
2023-02-25T18:40:59.560Z,1.80
2023-02-25T18:43:37.034Z,1.80
2023-02-25T18:46:10.534Z,1.90
2023-02-25T18:48:43.488Z,1.80
2023-02-25T18:51:16.582Z,1.90
2023-02-25T18:53:49.535Z,1.90
2023-02-25T18:56:22.949Z,1.90
2023-02-25T18:58:57.960Z,1.90
2023-02-25T19:01:33.845Z,1.90
2023-02-25T19:04:06.903Z,1.90
2023-02-25T19:06:39.891Z,1.90
2023-02-25T19:09:12.898Z,2.00
2023-02-25T19:11:46.696Z,2.00
2023-02-25T19:14:22.833Z,2.00
2023-02-25T19:16:57.323Z,2.00
2023-02-25T19:19:30.422Z,2.00
2023-02-25T19:22:03.435Z,2.00
2023-02-25T19:24:36.427Z,2.00
2023-02-25T19:27:21.767Z,2.00
2023-02-25T19:29:58.736Z,2.00
2023-02-25T19:32:31.702Z,2.00
2023-02-25T19:35:05.333Z,2.00
2023-02-25T19:37:40.684Z,1.90
2023-02-25T19:40:16.866Z,1.90
2023-02-25T19:42:50.160Z,1.90
2023-02-25T19:45:26.317Z,1.90
2023-02-25T19:47:59.797Z,1.90
2023-02-25T19:50:34.808Z,1.90
2023-02-25T19:53:07.799Z,1.90
2023-02-25T19:55:40.804Z,2.00
2023-02-25T19:58:13.763Z,1.90
2023-02-25T20:00:48.118Z,1.90
2023-02-25T20:03:21.132Z,1.90
2023-02-25T20:05:54.096Z,1.90
2023-02-25T20:08:27.214Z,1.90
2023-02-25T20:11:00.209Z,1.90
2023-02-25T20:13:33.143Z,1.90
2023-02-25T20:16:09.162Z,1.90
2023-02-25T20:18:42.219Z,1.90
2023-02-25T20:21:15.218Z,1.80
2023-02-25T20:23:48.193Z,1.80
2023-02-25T20:26:24.261Z,1.70
2023-02-25T20:28:58.418Z,1.70
2023-02-25T20:31:32.929Z,1.80
2023-02-25T20:34:06.878Z,1.70
2023-02-25T20:36:45.322Z,1.70
2023-02-25T20:39:44.285Z,1.70
2023-02-25T20:42:20.672Z,1.70
2023-02-25T20:44:54.737Z,1.70
2023-02-25T20:47:31.896Z,1.70
2023-02-25T20:50:08.546Z,1.70
2023-02-25T20:52:41.736Z,1.70
2023-02-25T20:55:14.875Z,1.60
2023-02-25T20:57:47.877Z,1.70
2023-02-25T21:00:22.010Z,1.60
2023-02-25T21:02:56.373Z,1.60
2023-02-25T21:05:29.377Z,1.60
2023-02-25T21:08:02.356Z,1.60
2023-02-25T21:10:35.379Z,1.60
2023-02-25T21:13:08.439Z,1.60
2023-02-25T21:15:41.387Z,1.60
2023-02-25T21:18:15.728Z,1.70
2023-02-25T21:20:48.694Z,1.60
2023-02-25T21:23:21.666Z,1.60
2023-02-25T21:25:55.288Z,1.60
2023-02-25T21:28:29.518Z,1.60
2023-02-25T21:31:05.604Z,1.60
2023-02-25T21:33:40.942Z,1.60
2023-02-25T21:36:13.956Z,1.60
2023-02-25T21:38:46.932Z,1.60
2023-02-25T21:41:20.032Z,1.60
2023-02-25T21:43:53.810Z,1.50
2023-02-25T21:46:27.697Z,1.50
2023-02-25T21:49:02.236Z,1.40
2023-02-25T21:51:35.251Z,1.40
2023-02-25T21:54:09.066Z,1.30
2023-02-25T21:56:42.420Z,1.30
2023-02-25T21:59:17.258Z,1.30
2023-02-25T22:01:50.914Z,1.30
2023-02-25T22:04:25.299Z,1.30
2023-02-25T22:06:58.337Z,1.10
2023-02-25T22:09:31.295Z,1.10
2023-02-25T22:12:04.281Z,0.90
2023-02-25T22:14:37.267Z,0.90
2023-02-25T22:17:10.249Z,0.80
2023-02-25T22:19:44.574Z,0.80
2023-02-25T22:22:17.593Z,0.80
2023-02-25T22:24:50.601Z,0.60
2023-02-25T22:27:23.690Z,0.60
2023-02-25T22:29:56.697Z,0.60
2023-02-25T22:32:29.711Z,0.60
2023-02-25T22:35:04.161Z,0.60
2023-02-25T22:37:37.175Z,0.60
2023-02-25T22:40:11.991Z,0.60
2023-02-25T22:42:44.974Z,0.60
2023-02-25T22:45:18.099Z,0.60
2023-02-25T22:47:51.069Z,0.60
2023-02-25T22:50:27.248Z,0.60
2023-02-25T22:53:00.197Z,0.50
2023-02-25T22:55:34.812Z,0.50
2023-02-25T22:58:07.751Z,0.40
2023-02-25T23:00:43.296Z,0.40
2023-02-25T23:03:16.310Z,0.40
2023-02-25T23:05:54.299Z,0.50
2023-02-25T23:08:28.304Z,0.50
2023-02-25T23:11:10.030Z,0.40
2023-02-25T23:13:47.403Z,0.20
2023-02-25T23:16:24.518Z,0.30
2023-02-25T23:18:59.727Z,0.30
2023-02-25T23:21:38.506Z,0.40
2023-02-25T23:24:16.636Z,0.30
2023-02-25T23:26:53.613Z,0.30
2023-02-25T23:29:26.636Z,0.20
2023-02-25T23:31:59.678Z,0.10
2023-02-25T23:34:32.714Z,0.10
2023-02-25T23:37:07.310Z,0.00
2023-02-25T23:39:40.738Z,-0.10
2023-02-25T23:42:13.730Z,0.00
2023-02-25T23:44:46.733Z,0.00
2023-02-25T23:47:20.190Z,0.00
2023-02-25T23:49:53.179Z,-0.10
2023-02-25T23:52:27.674Z,-0.20
2023-02-25T23:55:00.933Z,-0.20
2023-02-25T23:57:34.090Z,-0.30
